createdAt,value
2023-01-27T00:02:03.698Z,16.83
2023-01-27T00:04:36.987Z,20.58
2023-01-27T00:07:10.287Z,17.83
2023-01-27T00:09:44.131Z,17.20
2023-01-27T00:15:14.655Z,19.27
2023-01-27T00:17:48.041Z,18.52
2023-01-27T00:20:42.924Z,18.73
2023-01-27T00:23:36.097Z,17.08
2023-01-27T00:26:11.860Z,20.38
2023-01-27T00:28:48.992Z,19.13
2023-01-27T00:31:41.300Z,20.40
2023-01-27T00:34:14.874Z,17.83
2023-01-27T00:36:48.231Z,17.83
2023-01-27T00:39:21.587Z,21.85
2023-01-27T00:41:55.278Z,18.33
2023-01-27T00:47:04.466Z,19.65
2023-01-27T00:49:37.942Z,17.50
2023-01-27T00:52:11.314Z,18.27
2023-01-27T00:54:44.621Z,18.08
2023-01-27T00:57:17.962Z,17.77
2023-01-27T00:59:51.266Z,17.65
2023-01-27T01:02:26.359Z,17.70
2023-01-27T01:04:59.676Z,19.42
2023-01-27T01:07:32.975Z,16.67
2023-01-27T01:10:07.184Z,17.35
2023-01-27T01:12:40.916Z,16.67
2023-01-27T01:15:14.285Z,18.65
2023-01-27T01:17:48.980Z,18.23
2023-01-27T01:20:22.352Z,19.30
2023-01-27T01:22:55.743Z,20.55
2023-01-27T01:25:29.118Z,16.52
2023-01-27T01:28:03.991Z,18.00
2023-01-27T01:30:38.530Z,16.02
2023-01-27T01:33:13.826Z,20.23
2023-01-27T01:35:47.216Z,16.95
2023-01-27T01:38:20.534Z,21.20
2023-01-27T01:40:53.841Z,18.50
2023-01-27T01:43:28.024Z,18.60
2023-01-27T01:46:02.988Z,20.75
2023-01-27T01:48:40.966Z,15.80
2023-01-27T01:51:19.192Z,17.20
2023-01-27T01:53:57.569Z,19.92
2023-01-27T01:56:35.545Z,19.30
2023-01-27T01:59:17.873Z,17.15
2023-01-27T02:01:52.789Z,19.42
2023-01-27T02:04:32.760Z,20.27
2023-01-27T02:07:11.061Z,20.25
2023-01-27T02:09:44.635Z,17.35
2023-01-27T02:12:17.964Z,23.42
2023-01-27T02:14:51.331Z,20.52
2023-01-27T02:17:24.817Z,18.08
2023-01-27T02:20:06.560Z,18.88
2023-01-27T02:22:48.235Z,17.63
2023-01-27T02:25:33.575Z,18.20
2023-01-27T02:28:09.891Z,17.48
2023-01-27T02:30:43.373Z,17.63
2023-01-27T02:33:17.336Z,21.92
2023-01-27T02:35:59.070Z,18.25
2023-01-27T02:38:36.207Z,19.15
2023-01-27T02:41:13.069Z,18.08
2023-01-27T02:43:48.997Z,21.45
2023-01-27T02:46:22.768Z,19.35
2023-01-27T02:51:29.520Z,17.70
2023-01-27T02:54:03.245Z,18.83
2023-01-27T02:56:36.608Z,19.45
2023-01-27T02:59:11.302Z,16.00
2023-01-27T03:01:48.129Z,18.92
2023-01-27T03:04:21.543Z,17.92
2023-01-27T03:06:55.276Z,18.02
2023-01-27T03:12:19.167Z,18.23
2023-01-27T03:15:11.950Z,20.35
2023-01-27T03:18:03.764Z,18.80
2023-01-27T03:20:37.153Z,18.83
2023-01-27T03:23:11.391Z,19.95
2023-01-27T03:25:46.848Z,18.92
2023-01-27T03:28:20.483Z,22.00
2023-01-27T03:31:20.404Z,20.20
2023-01-27T03:34:07.757Z,20.02
2023-01-27T03:37:08.392Z,17.73
2023-01-27T03:39:59.484Z,19.52
2023-01-27T03:42:50.002Z,20.40
2023-01-27T03:45:40.540Z,19.88
2023-01-27T03:48:18.448Z,22.52
2023-01-27T03:50:54.079Z,17.08
2023-01-27T03:53:27.468Z,19.15
2023-01-27T03:56:00.915Z,19.13
2023-01-27T03:58:36.263Z,18.17
2023-01-27T04:01:14.910Z,19.35
2023-01-27T04:04:07.862Z,20.27
2023-01-27T04:06:55.296Z,19.20
2023-01-27T04:09:32.555Z,20.90
2023-01-27T04:12:06.468Z,18.42
2023-01-27T04:14:42.166Z,19.60
2023-01-27T04:17:17.132Z,18.17
2023-01-27T04:19:52.566Z,21.63
2023-01-27T04:22:25.907Z,20.85
2023-01-27T04:24:59.203Z,15.55
2023-01-27T04:27:32.479Z,22.05
2023-01-27T04:30:06.944Z,17.60
2023-01-27T04:32:40.254Z,22.40
2023-01-27T04:35:15.244Z,18.33
2023-01-27T04:37:48.744Z,18.60
2023-01-27T04:40:22.036Z,20.92
2023-01-27T04:42:55.508Z,18.98
2023-01-27T04:45:28.862Z,21.45
2023-01-27T04:48:02.614Z,19.10
2023-01-27T04:50:37.288Z,21.63
2023-01-27T04:53:10.787Z,19.23
2023-01-27T04:55:48.529Z,19.83
2023-01-27T04:58:21.829Z,20.67
2023-01-27T05:00:55.154Z,21.02
2023-01-27T05:03:28.418Z,18.88
2023-01-27T05:06:04.749Z,21.38
2023-01-27T05:08:38.042Z,21.42
2023-01-27T05:11:12.290Z,21.05
2023-01-27T05:13:46.178Z,18.65
2023-01-27T05:18:54.197Z,18.98
2023-01-27T05:21:29.070Z,16.27
2023-01-27T05:24:03.497Z,19.52
2023-01-27T05:26:36.855Z,20.42
2023-01-27T05:29:10.577Z,21.20
2023-01-27T05:31:43.904Z,21.13
2023-01-27T05:34:17.809Z,17.70
2023-01-27T05:36:52.659Z,21.08
2023-01-27T05:39:25.957Z,21.33
2023-01-27T05:41:59.307Z,19.25
2023-01-27T05:44:32.630Z,22.77
2023-01-27T05:47:07.344Z,20.10
2023-01-27T05:49:40.643Z,21.80
2023-01-27T05:52:15.340Z,22.52
2023-01-27T05:54:48.640Z,20.58
2023-01-27T05:57:21.961Z,22.77
2023-01-27T05:59:55.299Z,18.52
2023-01-27T06:02:28.614Z,19.10
2023-01-27T06:05:01.938Z,20.08
2023-01-27T06:07:36.644Z,18.80
2023-01-27T06:10:11.544Z,21.48
2023-01-27T06:12:44.847Z,21.40
2023-01-27T06:15:18.192Z,21.70
2023-01-27T06:17:52.848Z,19.65
2023-01-27T06:20:26.588Z,20.85
2023-01-27T06:23:01.781Z,21.55
2023-01-27T06:25:39.221Z,19.98
2023-01-27T06:28:27.801Z,21.83
2023-01-27T06:31:07.147Z,20.35
2023-01-27T06:33:41.062Z,21.90
2023-01-27T06:36:17.784Z,24.67
2023-01-27T06:38:52.722Z,21.00
2023-01-27T06:41:26.260Z,23.23
2023-01-27T06:43:59.554Z,18.83
2023-01-27T06:46:32.904Z,21.02
2023-01-27T06:49:06.314Z,20.95
2023-01-27T06:51:39.689Z,22.25
2023-01-27T06:54:14.579Z,25.55
2023-01-27T06:56:48.191Z,20.13
2023-01-27T06:59:21.553Z,19.67
2023-01-27T07:01:54.805Z,21.45
2023-01-27T07:04:29.720Z,22.50
2023-01-27T07:07:03.594Z,21.80
2023-01-27T07:09:51.680Z,19.55
2023-01-27T07:12:25.807Z,20.15
2023-01-27T07:14:59.127Z,23.38
2023-01-27T07:17:32.450Z,24.92
2023-01-27T07:20:07.961Z,20.13
2023-01-27T07:22:41.307Z,23.15
2023-01-27T07:25:16.241Z,23.52
2023-01-27T07:27:49.610Z,26.30
2023-01-27T07:30:23.168Z,25.27
2023-01-27T07:32:56.546Z,20.33
2023-01-27T07:35:29.800Z,21.17
2023-01-27T07:38:03.185Z,17.10
2023-01-27T07:40:37.887Z,20.98
2023-01-27T07:43:11.429Z,23.42
2023-01-27T07:45:49.003Z,26.65
2023-01-27T07:48:22.385Z,20.52
2023-01-27T07:50:55.665Z,20.00
2023-01-27T07:53:28.960Z,24.05
2023-01-27T07:56:03.660Z,21.00
2023-01-27T07:58:38.272Z,19.80
2023-01-27T08:01:13.496Z,20.88
2023-01-27T08:03:46.820Z,21.58
2023-01-27T08:06:20.147Z,23.95
2023-01-27T08:08:53.438Z,19.85
2023-01-27T08:11:28.143Z,20.30
2023-01-27T08:14:01.508Z,20.60
2023-01-27T08:16:34.851Z,21.05
2023-01-27T08:19:08.214Z,22.33
2023-01-27T08:21:41.520Z,20.83
2023-01-27T08:24:14.982Z,21.60
2023-01-27T08:26:49.701Z,19.65
2023-01-27T08:29:22.982Z,21.98
2023-01-27T08:31:56.341Z,24.98
2023-01-27T08:34:29.912Z,22.48
2023-01-27T08:37:03.257Z,26.08
2023-01-27T08:39:36.760Z,24.80
2023-01-27T08:42:11.513Z,20.55
2023-01-27T08:44:44.817Z,24.20
2023-01-27T08:47:18.124Z,22.48
2023-01-27T08:49:51.562Z,23.20
2023-01-27T08:52:25.350Z,21.30
2023-01-27T08:54:59.011Z,25.00
2023-01-27T08:57:35.847Z,24.77
2023-01-27T09:00:12.980Z,21.60
2023-01-27T09:02:47.048Z,21.80
2023-01-27T09:05:22.301Z,20.85
2023-01-27T09:07:55.630Z,20.98
2023-01-27T09:10:28.984Z,24.25
2023-01-27T09:13:03.632Z,22.83
2023-01-27T09:15:37.619Z,21.77
2023-01-27T09:18:11.631Z,23.73
2023-01-27T09:20:44.930Z,21.92
2023-01-27T09:23:18.246Z,22.75
2023-01-27T09:25:51.564Z,21.77
2023-01-27T09:28:26.383Z,18.80
2023-01-27T09:31:00.516Z,26.10
2023-01-27T09:33:33.844Z,22.48
2023-01-27T09:36:11.785Z,21.92
2023-01-27T09:38:48.911Z,21.15
2023-01-27T09:41:52.356Z,22.95
2023-01-27T09:44:52.162Z,22.17
2023-01-27T09:47:35.902Z,22.67
2023-01-27T09:50:29.149Z,22.55
2023-01-27T09:53:41.454Z,20.73
2023-01-27T09:56:20.767Z,20.88
2023-01-27T09:59:06.387Z,21.98
2023-01-27T10:01:51.670Z,24.00
2023-01-27T10:04:39.807Z,22.48
2023-01-27T10:07:38.347Z,21.73
2023-01-27T10:10:25.943Z,19.35
2023-01-27T10:13:26.887Z,21.58
2023-01-27T10:16:19.479Z,22.50
2023-01-27T10:19:19.272Z,20.55
2023-01-27T10:22:02.134Z,22.48
2023-01-27T10:24:48.929Z,22.33
2023-01-27T10:27:24.343Z,23.45
2023-01-27T10:30:00.943Z,21.08
2023-01-27T10:32:43.773Z,23.05
2023-01-27T10:35:21.322Z,20.38
2023-01-27T10:38:05.601Z,20.95
2023-01-27T10:40:46.331Z,19.65
2023-01-27T10:43:28.584Z,19.40
2023-01-27T10:46:10.467Z,21.00
2023-01-27T10:48:48.087Z,19.90
2023-01-27T10:51:27.312Z,21.58
2023-01-27T10:54:05.713Z,20.77
2023-01-27T10:56:45.307Z,23.90
2023-01-27T10:59:24.718Z,20.42
2023-01-27T11:02:04.366Z,22.63
2023-01-27T11:04:41.193Z,19.48
2023-01-27T11:07:20.413Z,20.25
2023-01-27T11:09:59.233Z,19.58
2023-01-27T11:12:36.269Z,25.50
2023-01-27T11:15:18.778Z,21.52
2023-01-27T11:17:57.449Z,20.55
2023-01-27T11:20:35.206Z,18.10
2023-01-27T11:23:18.615Z,17.23
2023-01-27T11:25:58.498Z,23.77
2023-01-27T11:28:41.762Z,19.45
2023-01-27T11:31:29.550Z,22.93
2023-01-27T11:34:08.588Z,18.08
2023-01-27T11:36:41.961Z,23.00
2023-01-27T11:39:18.122Z,21.17
2023-01-27T11:41:55.698Z,20.88
2023-01-27T11:44:33.178Z,19.52
2023-01-27T11:47:09.128Z,20.45
2023-01-27T11:49:45.246Z,21.50
2023-01-27T11:52:21.221Z,18.35
2023-01-27T11:55:01.019Z,17.73
2023-01-27T11:57:35.185Z,18.35
2023-01-27T12:00:18.455Z,18.92
2023-01-27T12:02:56.355Z,15.98
2023-01-27T12:05:32.936Z,18.52
2023-01-27T12:08:07.039Z,18.70
2023-01-27T12:10:43.234Z,19.67
2023-01-27T12:13:18.757Z,19.48
2023-01-27T12:15:56.926Z,18.73
2023-01-27T12:18:34.326Z,19.30
2023-01-27T12:21:10.425Z,18.73
2023-01-27T12:23:50.960Z,16.30
2023-01-27T12:26:37.758Z,19.85
2023-01-27T12:29:19.741Z,18.70
2023-01-27T12:31:55.505Z,15.82
2023-01-27T12:34:36.112Z,18.08
2023-01-27T12:37:20.173Z,18.45
2023-01-27T12:42:43.246Z,17.10
2023-01-27T12:45:23.450Z,15.63
2023-01-27T12:48:03.054Z,16.83
2023-01-27T12:50:38.194Z,16.55
2023-01-27T12:53:14.279Z,18.08
2023-01-27T12:55:52.163Z,16.52
2023-01-27T12:58:33.920Z,17.40
2023-01-27T13:01:24.476Z,18.48
2023-01-27T13:04:01.020Z,16.73
2023-01-27T13:06:43.355Z,18.33
2023-01-27T13:09:26.816Z,17.83
2023-01-27T13:12:03.738Z,19.83
2023-01-27T13:14:43.278Z,18.38
2023-01-27T13:17:31.326Z,14.90
2023-01-27T13:20:16.179Z,16.52
2023-01-27T13:22:54.386Z,16.65
2023-01-27T13:25:33.951Z,17.42
2023-01-27T13:28:09.739Z,17.25
2023-01-27T13:30:51.407Z,15.90
2023-01-27T13:33:32.672Z,17.92
2023-01-27T13:36:09.764Z,17.38
2023-01-27T13:38:53.661Z,16.17
2023-01-27T13:41:34.691Z,17.80
2023-01-27T13:44:18.488Z,14.98
2023-01-27T13:46:56.229Z,13.02
2023-01-27T13:49:37.015Z,14.82
2023-01-27T13:52:13.212Z,15.82
2023-01-27T13:54:46.584Z,16.77
2023-01-27T13:57:39.750Z,14.85
2023-01-27T14:00:21.665Z,16.70
2023-01-27T14:03:27.732Z,17.52
2023-01-27T14:06:20.117Z,17.05
2023-01-27T14:09:16.848Z,14.48
2023-01-27T14:11:56.648Z,16.40
2023-01-27T14:14:56.115Z,20.67
2023-01-27T14:17:44.705Z,13.68
2023-01-27T14:20:29.460Z,15.65
2023-01-27T14:23:17.622Z,17.55
2023-01-27T14:26:00.534Z,16.48
2023-01-27T14:28:43.174Z,17.23
2023-01-27T14:31:20.635Z,14.70
2023-01-27T14:34:04.779Z,16.55
2023-01-27T14:39:24.878Z,14.38
2023-01-27T14:42:05.370Z,14.82
2023-01-27T14:44:55.834Z,15.02
2023-01-27T14:47:48.879Z,14.88
2023-01-27T14:50:31.985Z,13.85
2023-01-27T14:53:20.616Z,15.05
2023-01-27T14:56:02.641Z,18.40
2023-01-27T14:58:54.580Z,16.70
2023-01-27T15:01:39.505Z,15.10
2023-01-27T15:04:35.813Z,17.13
2023-01-27T15:07:17.085Z,16.70
2023-01-27T15:10:09.065Z,19.30
2023-01-27T15:13:18.556Z,17.55
2023-01-27T15:16:16.053Z,16.98
2023-01-27T15:19:11.990Z,17.23
2023-01-27T15:22:27.205Z,18.15
2023-01-27T15:27:37.710Z,17.15
2023-01-27T15:30:23.896Z,14.43
2023-01-27T15:32:58.987Z,15.68
2023-01-27T15:35:36.226Z,19.30
2023-01-27T15:38:33.763Z,14.68
2023-01-27T15:41:12.187Z,15.93
2023-01-27T15:44:15.435Z,16.27
2023-01-27T15:46:50.804Z,17.40
2023-01-27T15:49:29.141Z,15.85
2023-01-27T15:52:12.107Z,13.70
2023-01-27T15:54:52.040Z,19.02
2023-01-27T15:57:32.764Z,15.55
2023-01-27T16:00:08.845Z,18.67
2023-01-27T16:02:48.073Z,16.08
2023-01-27T16:05:27.872Z,18.45
2023-01-27T16:08:03.141Z,13.85
2023-01-27T16:10:37.421Z,16.67
2023-01-27T16:13:24.145Z,17.27
2023-01-27T16:16:33.822Z,19.60
2023-01-27T16:19:20.622Z,15.15
2023-01-27T16:21:59.431Z,16.60
2023-01-27T16:24:40.680Z,18.00
2023-01-27T16:27:26.510Z,15.98
2023-01-27T16:30:07.591Z,19.23
2023-01-27T16:32:47.611Z,17.23
2023-01-27T16:35:22.943Z,16.08
2023-01-27T16:38:05.868Z,14.13
2023-01-27T16:40:39.931Z,15.02
2023-01-27T16:43:19.415Z,16.30
2023-01-27T16:45:55.859Z,15.38
2023-01-27T16:48:35.374Z,16.40
2023-01-27T16:51:14.979Z,18.65
2023-01-27T16:53:51.597Z,15.88
2023-01-27T16:56:27.819Z,17.27
2023-01-27T16:59:03.764Z,16.67
2023-01-27T17:01:42.273Z,15.75
2023-01-27T17:04:20.679Z,17.95
2023-01-27T17:06:58.186Z,15.98
2023-01-27T17:09:35.384Z,18.58
2023-01-27T17:12:28.229Z,15.73
2023-01-27T17:15:10.460Z,15.25
2023-01-27T17:17:44.382Z,14.15
2023-01-27T17:20:27.398Z,18.88
2023-01-27T17:23:03.942Z,16.73
2023-01-27T17:25:40.747Z,15.95
2023-01-27T17:28:20.548Z,17.85
2023-01-27T17:31:06.234Z,16.70
2023-01-27T17:33:40.912Z,17.40
2023-01-27T17:36:14.674Z,16.45
2023-01-27T17:41:36.480Z,20.23
2023-01-27T17:44:19.717Z,18.88
2023-01-27T17:46:53.873Z,16.43
2023-01-27T17:49:28.392Z,19.00
2023-01-27T17:52:02.329Z,15.52
2023-01-27T17:54:38.781Z,16.67
2023-01-27T17:57:21.532Z,15.65
2023-01-27T18:00:01.758Z,13.52
2023-01-27T18:02:37.831Z,16.40
2023-01-27T18:05:18.236Z,17.85
2023-01-27T18:07:52.112Z,16.38
2023-01-27T18:13:13.933Z,16.17
2023-01-27T18:15:50.927Z,17.98
2023-01-27T18:18:26.267Z,15.63
2023-01-27T18:21:14.040Z,14.82
2023-01-27T18:23:52.777Z,18.00
2023-01-27T18:26:28.391Z,16.38
2023-01-27T18:29:06.036Z,16.35
2023-01-27T18:31:48.219Z,18.83
2023-01-27T18:34:32.798Z,18.05
2023-01-27T18:37:22.094Z,15.73
2023-01-27T18:39:55.858Z,16.42
2023-01-27T18:42:31.031Z,17.75
2023-01-27T18:45:06.578Z,16.17
2023-01-27T18:47:40.173Z,17.17
2023-01-27T18:50:16.011Z,17.00
2023-01-27T18:52:50.125Z,16.25
2023-01-27T18:55:24.897Z,16.60
2023-01-27T18:57:59.540Z,16.48
2023-01-27T19:00:38.862Z,16.38
2023-01-27T19:03:15.817Z,17.48
2023-01-27T19:05:50.360Z,16.67
2023-01-27T19:08:25.261Z,19.90
2023-01-27T19:10:58.594Z,17.15
2023-01-27T19:13:34.651Z,14.95
2023-01-27T19:16:14.703Z,16.00
2023-01-27T19:18:48.091Z,17.45
2023-01-27T19:21:21.430Z,17.67
2023-01-27T19:23:54.868Z,15.88
2023-01-27T19:26:29.833Z,18.23
2023-01-27T19:29:03.561Z,15.85
2023-01-27T19:31:38.259Z,15.93
2023-01-27T19:34:12.300Z,14.25
2023-01-27T19:36:46.675Z,16.50
2023-01-27T19:39:20.981Z,16.17
2023-01-27T19:41:54.338Z,17.73
2023-01-27T19:44:28.131Z,17.52
2023-01-27T19:47:02.839Z,15.88
2023-01-27T19:49:36.129Z,15.85
2023-01-27T19:52:10.054Z,16.02
2023-01-27T19:54:43.551Z,15.75
2023-01-27T19:57:18.846Z,19.00
2023-01-27T19:59:52.352Z,18.13
2023-01-27T20:05:01.027Z,15.98
2023-01-27T20:07:34.580Z,16.23
2023-01-27T20:10:12.223Z,14.23
2023-01-27T20:12:46.269Z,15.77
2023-01-27T20:15:22.705Z,16.42
2023-01-27T20:17:57.768Z,17.05
2023-01-27T20:20:31.571Z,17.92
2023-01-27T20:23:05.601Z,19.40
2023-01-27T20:25:40.173Z,16.02
2023-01-27T20:28:13.892Z,14.23
2023-01-27T20:30:47.337Z,15.02
2023-01-27T20:33:23.116Z,15.13
2023-01-27T20:35:56.714Z,14.27
2023-01-27T20:38:31.022Z,16.23
2023-01-27T20:41:08.156Z,16.02
2023-01-27T20:43:41.648Z,16.48
2023-01-27T20:46:17.649Z,16.45
2023-01-27T20:48:53.953Z,13.57
2023-01-27T20:51:27.429Z,13.80
2023-01-27T20:54:02.733Z,16.27
2023-01-27T20:56:36.459Z,16.42
2023-01-27T20:59:09.831Z,14.15
2023-01-27T21:01:44.711Z,14.90
2023-01-27T21:04:19.925Z,15.60
2023-01-27T21:06:53.360Z,14.02
2023-01-27T21:09:26.804Z,16.17
2023-01-27T21:12:00.351Z,16.80
2023-01-27T21:14:34.197Z,14.52
2023-01-27T21:19:44.949Z,14.55
2023-01-27T21:22:19.060Z,14.85
2023-01-27T21:24:52.732Z,15.07
2023-01-27T21:27:26.147Z,14.95
2023-01-27T21:29:59.774Z,13.00
2023-01-27T21:32:33.143Z,13.63
2023-01-27T21:35:08.905Z,13.60
2023-01-27T21:37:42.749Z,13.45
2023-01-27T21:43:06.968Z,14.05
2023-01-27T21:45:40.336Z,13.80
2023-01-27T21:48:15.018Z,15.75
2023-01-27T21:50:53.734Z,15.30
2023-01-27T21:53:27.272Z,14.23
2023-01-27T21:56:05.980Z,14.32
2023-01-27T21:58:39.516Z,13.45
2023-01-27T22:01:13.347Z,11.05
2023-01-27T22:03:46.910Z,13.13
2023-01-27T22:06:21.912Z,12.70
2023-01-27T22:08:55.479Z,14.40
2023-01-27T22:11:29.531Z,12.27
2023-01-27T22:14:03.031Z,12.73
2023-01-27T22:16:36.446Z,13.02
2023-01-27T22:19:10.024Z,12.30
2023-01-27T22:21:44.871Z,12.07
2023-01-27T22:24:18.572Z,13.25
2023-01-27T22:26:52.168Z,15.23
2023-01-27T22:29:25.569Z,13.80
2023-01-27T22:31:58.941Z,12.63
2023-01-27T22:34:32.677Z,12.40
2023-01-27T22:37:07.408Z,12.57
2023-01-27T22:39:42.212Z,14.35
2023-01-27T22:42:15.473Z,12.90
2023-01-27T22:44:48.880Z,14.05
2023-01-27T22:47:22.336Z,12.88
2023-01-27T22:49:55.657Z,12.52
2023-01-27T22:52:30.434Z,13.05
2023-01-27T22:55:04.234Z,12.52
2023-01-27T23:00:12.055Z,13.10
2023-01-27T23:02:45.730Z,13.30
2023-01-27T23:05:19.249Z,14.02
2023-01-27T23:07:54.066Z,12.52
2023-01-27T23:10:27.431Z,12.50
2023-01-27T23:13:00.873Z,12.55
2023-01-27T23:15:34.635Z,11.18
2023-01-27T23:18:11.346Z,11.68
2023-01-27T23:20:44.984Z,12.25
2023-01-27T23:23:20.583Z,12.68
2023-01-27T23:25:54.039Z,13.35
2023-01-27T23:28:27.850Z,11.20
2023-01-27T23:31:01.494Z,11.90
2023-01-27T23:33:36.710Z,10.93
2023-01-27T23:36:11.874Z,11.52
2023-01-27T23:38:48.751Z,13.73
2023-01-27T23:41:22.919Z,12.48
2023-01-27T23:43:57.681Z,12.32
2023-01-27T23:46:31.127Z,14.43
2023-01-27T23:49:04.449Z,13.02
2023-01-27T23:51:38.469Z,11.02
2023-01-27T23:54:13.314Z,11.52
2023-01-27T23:56:46.891Z,12.13
2023-01-27T23:59:20.243Z,12.18
